If you wish to contribute or participate in the discussions about articles you are invited to join SKYbrary as a registered user

 Actions

Baia Mare Airport

From SKYbrary Wiki

LRBM
Airport
ICAO: LRBM – IATA: BAY
Summary
Name Baia Mare Airport
Region Europe
Territory Romania RO.gif
Location Tăuții-Măgherăuș, Maramureș
Serving Baia Mare
Elevation 184.404 m
605 ft
605 ft184.404 m
Coordinates 47° 39' 39.16" N, 23° 28' 1.55" E
Runways
Designator Length Width Surface ROPS
10/28 1800 m5,905.512 ft
30 m98.425 ft
CON /


METAR
Observation LRBM 240630Z 09009KT 9999 FEW040 13/03 Q1023
Station Baia Mare
Date/Time 24 April 2019 06:30:00
Wind direction 90°
Wind speed 09 kts
Lowest cloud amount few clouds
Temperature 13°C
Dew point 3°C
Humidity 50%
QNH 1023 hPa
Weather condition n/a

Baia Mare Airport

ICAO: LRBM IATA: BAY

Description

Regional airport located in north-west Romania serving the city of Baia Mare.

Climatology

Humid Continental climate (Köppen climate classification Dfb) - Variable weather patterns and a large seasonal temperature variance. Summers are often warm and humid with frequent thunderstorms and winters can be very cold with frequent snowfall and persistent snow cover.

Maps

Terrain

Loading map...

Airport Layout

Loading map...


Accidents & Serious Incidents at or in vicinity of LRBM

None on SKYbrary